sensor_id;sensor_type;location;lat;lon;timestamp;P1;durP1;ratioP1;P2;durP2;ratioP2
73150;SDS011;61354;50.758;6.106;2023-07-22T00:00:29;6.93;;;3.95;;
73150;SDS011;61354;50.758;6.106;2023-07-22T00:02:56;7.50;;;3.30;;
73150;SDS011;61354;50.758;6.106;2023-07-22T00:05:21;7.75;;;3.90;;
73150;SDS011;61354;50.758;6.106;2023-07-22T00:07:51;8.75;;;3.88;;
73150;SDS011;61354;50.758;6.106;2023-07-22T00:10:17;6.63;;;3.10;;
73150;SDS011;61354;50.758;6.106;2023-07-22T00:12:44;6.55;;;3.30;;
73150;SDS011;61354;50.758;6.106;2023-07-22T00:15:09;7.32;;;3.50;;
73150;SDS011;61354;50.758;6.106;2023-07-22T00:17:38;6.13;;;3.13;;
73150;SDS011;61354;50.758;6.106;2023-07-22T00:20:05;6.35;;;3.33;;
73150;SDS011;61354;50.758;6.106;2023-07-22T00:22:34;7.57;;;3.50;;
73150;SDS011;61354;50.758;6.106;2023-07-22T00:25:01;9.75;;;3.70;;
73150;SDS011;61354;50.758;6.106;2023-07-22T00:27:27;7.68;;;3.65;;
73150;SDS011;61354;50.758;6.106;2023-07-22T00:29:52;5.85;;;3.38;;
73150;SDS011;61354;50.758;6.106;2023-07-22T00:32:18;6.60;;;3.45;;
73150;SDS011;61354;50.758;6.106;2023-07-22T00:34:43;9.23;;;4.05;;
73150;SDS011;61354;50.758;6.106;2023-07-22T00:37:09;6.72;;;3.58;;
73150;SDS011;61354;50.758;6.106;2023-07-22T00:39:34;8.07;;;3.75;;
73150;SDS011;61354;50.758;6.106;2023-07-22T00:42:00;6.47;;;3.25;;
73150;SDS011;61354;50.758;6.106;2023-07-22T00:44:25;6.35;;;3.72;;
73150;SDS011;61354;50.758;6.106;2023-07-22T00:46:53;7.15;;;3.20;;
73150;SDS011;61354;50.758;6.106;2023-07-22T00:49:21;7.22;;;3.42;;
73150;SDS011;61354;50.758;6.106;2023-07-22T00:51:48;6.07;;;3.45;;
73150;SDS011;61354;50.758;6.106;2023-07-22T00:54:14;6.50;;;3.70;;
73150;SDS011;61354;50.758;6.106;2023-07-22T00:56:40;6.22;;;3.50;;
73150;SDS011;61354;50.758;6.106;2023-07-22T00:59:08;7.38;;;3.42;;
73150;SDS011;61354;50.758;6.106;2023-07-22T01:01:34;6.47;;;3.42;;
73150;SDS011;61354;50.758;6.106;2023-07-22T01:03:59;5.60;;;3.00;;
73150;SDS011;61354;50.758;6.106;2023-07-22T01:06:26;5.82;;;3.50;;
73150;SDS011;61354;50.758;6.106;2023-07-22T01:08:56;6.97;;;3.50;;
73150;SDS011;61354;50.758;6.106;2023-07-22T01:11:23;6.05;;;3.35;;
73150;SDS011;61354;50.758;6.106;2023-07-22T01:13:49;6.75;;;3.28;;
73150;SDS011;61354;50.758;6.106;2023-07-22T01:16:15;6.80;;;3.47;;
73150;SDS011;61354;50.758;6.106;2023-07-22T01:18:42;6.82;;;3.55;;
73150;SDS011;61354;50.758;6.106;2023-07-22T01:21:08;6.22;;;3.35;;
73150;SDS011;61354;50.758;6.106;2023-07-22T01:23:34;6.65;;;3.20;;
73150;SDS011;61354;50.758;6.106;2023-07-22T01:26:01;6.93;;;3.58;;
73150;SDS011;61354;50.758;6.106;2023-07-22T01:28:28;6.22;;;3.42;;
73150;SDS011;61354;50.758;6.106;2023-07-22T01:30:53;7.72;;;3.60;;
73150;SDS011;61354;50.758;6.106;2023-07-22T01:33:19;6.50;;;3.60;;
73150;SDS011;61354;50.758;6.106;2023-07-22T01:35:45;7.70;;;3.45;;
73150;SDS011;61354;50.758;6.106;2023-07-22T01:38:11;6.15;;;3.40;;
73150;SDS011;61354;50.758;6.106;2023-07-22T01:40:36;5.75;;;3.17;;
73150;SDS011;61354;50.758;6.106;2023-07-22T01:43:02;6.25;;;3.38;;
73150;SDS011;61354;50.758;6.106;2023-07-22T01:45:28;6.25;;;3.55;;
73150;SDS011;61354;50.758;6.106;2023-07-22T01:47:53;6.68;;;3.60;;
73150;SDS011;61354;50.758;6.106;2023-07-22T01:50:19;8.45;;;3.60;;
73150;SDS011;61354;50.758;6.106;2023-07-22T01:52:44;7.45;;;3.72;;
73150;SDS011;61354;50.758;6.106;2023-07-22T01:55:11;5.60;;;3.10;;
73150;SDS011;61354;50.758;6.106;2023-07-22T01:57:37;8.02;;;3.33;;
73150;SDS011;61354;50.758;6.106;2023-07-22T02:00:03;6.80;;;3.45;;
73150;SDS011;61354;50.758;6.106;2023-07-22T02:02:33;7.05;;;3.60;;
73150;SDS011;61354;50.758;6.106;2023-07-22T02:04:59;7.20;;;3.50;;
73150;SDS011;61354;50.758;6.106;2023-07-22T02:07:24;7.55;;;3.72;;
73150;SDS011;61354;50.758;6.106;2023-07-22T02:09:51;6.88;;;3.55;;
73150;SDS011;61354;50.758;6.106;2023-07-22T02:12:17;6.47;;;3.83;;
73150;SDS011;61354;50.758;6.106;2023-07-22T02:14:43;7.32;;;3.88;;
73150;SDS011;61354;50.758;6.106;2023-07-22T02:17:09;8.10;;;4.15;;
73150;SDS011;61354;50.758;6.106;2023-07-22T02:19:34;7.28;;;3.92;;
73150;SDS011;61354;50.758;6.106;2023-07-22T02:22:00;6.35;;;3.70;;
73150;SDS011;61354;50.758;6.106;2023-07-22T02:24:26;8.18;;;3.97;;
73150;SDS011;61354;50.758;6.106;2023-07-22T02:26:51;7.07;;;3.78;;
73150;SDS011;61354;50.758;6.106;2023-07-22T02:29:17;6.70;;;3.47;;
73150;SDS011;61354;50.758;6.106;2023-07-22T02:31:45;6.82;;;3.40;;
73150;SDS011;61354;50.758;6.106;2023-07-22T02:34:11;6.95;;;3.35;;
73150;SDS011;61354;50.758;6.106;2023-07-22T02:36:37;6.60;;;3.50;;
73150;SDS011;61354;50.758;6.106;2023-07-22T02:39:03;6.95;;;3.45;;
73150;SDS011;61354;50.758;6.106;2023-07-22T02:41:28;5.85;;;3.30;;
73150;SDS011;61354;50.758;6.106;2023-07-22T02:43:54;6.95;;;3.75;;
73150;SDS011;61354;50.758;6.106;2023-07-22T02:46:19;8.38;;;3.78;;
73150;SDS011;61354;50.758;6.106;2023-07-22T02:48:45;8.25;;;3.83;;
73150;SDS011;61354;50.758;6.106;2023-07-22T02:51:11;6.70;;;3.40;;
73150;SDS011;61354;50.758;6.106;2023-07-22T02:53:36;7.68;;;3.45;;
73150;SDS011;61354;50.758;6.106;2023-07-22T02:56:02;7.07;;;3.50;;
73150;SDS011;61354;50.758;6.106;2023-07-22T03:01:03;6.65;;;3.55;;
73150;SDS011;61354;50.758;6.106;2023-07-22T03:03:34;6.80;;;3.58;;
73150;SDS011;61354;50.758;6.106;2023-07-22T03:06:00;6.93;;;3.10;;
73150;SDS011;61354;50.758;6.106;2023-07-22T03:08:26;6.47;;;3.30;;
73150;SDS011;61354;50.758;6.106;2023-07-22T03:10:51;7.25;;;3.30;;
73150;SDS011;61354;50.758;6.106;2023-07-22T03:13:17;8.05;;;3.50;;
73150;SDS011;61354;50.758;6.106;2023-07-22T03:15:43;6.97;;;2.85;;
73150;SDS011;61354;50.758;6.106;2023-07-22T03:18:09;7.47;;;3.30;;
73150;SDS011;61354;50.758;6.106;2023-07-22T03:20:38;7.05;;;3.15;;
73150;SDS011;61354;50.758;6.106;2023-07-22T03:23:04;7.82;;;3.47;;
73150;SDS011;61354;50.758;6.106;2023-07-22T03:25:30;7.15;;;3.13;;
73150;SDS011;61354;50.758;6.106;2023-07-22T03:27:57;7.68;;;3.83;;
73150;SDS011;61354;50.758;6.106;2023-07-22T03:30:25;7.20;;;3.28;;
73150;SDS011;61354;50.758;6.106;2023-07-22T03:32:50;7.72;;;3.45;;
73150;SDS011;61354;50.758;6.106;2023-07-22T03:35:16;6.80;;;3.00;;
73150;SDS011;61354;50.758;6.106;2023-07-22T03:37:42;6.50;;;3.00;;
73150;SDS011;61354;50.758;6.106;2023-07-22T03:40:08;6.90;;;3.60;;
73150;SDS011;61354;50.758;6.106;2023-07-22T03:42:55;8.98;;;3.22;;
73150;SDS011;61354;50.758;6.106;2023-07-22T03:45:22;7.28;;;3.22;;
73150;SDS011;61354;50.758;6.106;2023-07-22T03:47:58;6.90;;;3.40;;
73150;SDS011;61354;50.758;6.106;2023-07-22T03:50:25;7.55;;;3.35;;
73150;SDS011;61354;50.758;6.106;2023-07-22T03:52:51;5.50;;;2.90;;
73150;SDS011;61354;50.758;6.106;2023-07-22T03:55:17;6.13;;;3.03;;
73150;SDS011;61354;50.758;6.106;2023-07-22T03:57:44;6.03;;;3.25;;
73150;SDS011;61354;50.758;6.106;2023-07-22T04:00:10;7.20;;;2.65;;
73150;SDS011;61354;50.758;6.106;2023-07-22T04:02:36;7.35;;;3.08;;
73150;SDS011;61354;50.758;6.106;2023-07-22T04:05:02;6.82;;;2.90;;
73150;SDS011;61354;50.758;6.106;2023-07-22T04:07:28;7.28;;;3.03;;
73150;SDS011;61354;50.758;6.106;2023-07-22T04:09:54;6.47;;;3.10;;
73150;SDS011;61354;50.758;6.106;2023-07-22T04:12:19;6.75;;;3.33;;
73150;SDS011;61354;50.758;6.106;2023-07-22T04:14:45;5.95;;;3.38;;
73150;SDS011;61354;50.758;6.106;2023-07-22T04:17:10;6.15;;;3.42;;
73150;SDS011;61354;50.758;6.106;2023-07-22T04:19:36;5.82;;;3.15;;
73150;SDS011;61354;50.758;6.106;2023-07-22T04:22:02;5.45;;;3.10;;
73150;SDS011;61354;50.758;6.106;2023-07-22T04:24:32;6.15;;;2.90;;
73150;SDS011;61354;50.758;6.106;2023-07-22T04:26:58;5.63;;;3.10;;
73150;SDS011;61354;50.758;6.106;2023-07-22T04:29:24;6.57;;;3.00;;
73150;SDS011;61354;50.758;6.106;2023-07-22T04:31:50;5.57;;;3.15;;
73150;SDS011;61354;50.758;6.106;2023-07-22T04:34:15;5.88;;;2.85;;
73150;SDS011;61354;50.758;6.106;2023-07-22T04:36:41;5.25;;;2.65;;
73150;SDS011;61354;50.758;6.106;2023-07-22T04:39:07;7.93;;;3.70;;
73150;SDS011;61354;50.758;6.106;2023-07-22T04:41:33;5.45;;;3.15;;
73150;SDS011;61354;50.758;6.106;2023-07-22T04:43:58;5.28;;;3.10;;
73150;SDS011;61354;50.758;6.106;2023-07-22T04:46:27;5.60;;;3.25;;
73150;SDS011;61354;50.758;6.106;2023-07-22T04:48:54;5.28;;;2.75;;
73150;SDS011;61354;50.758;6.106;2023-07-22T04:51:20;7.47;;;4.03;;
73150;SDS011;61354;50.758;6.106;2023-07-22T04:53:45;5.90;;;3.28;;
73150;SDS011;61354;50.758;6.106;2023-07-22T04:56:11;6.35;;;3.20;;
73150;SDS011;61354;50.758;6.106;2023-07-22T04:58:37;6.53;;;2.95;;
73150;SDS011;61354;50.758;6.106;2023-07-22T05:01:02;5.50;;;3.30;;
73150;SDS011;61354;50.758;6.106;2023-07-22T05:03:28;5.57;;;3.13;;
73150;SDS011;61354;50.758;6.106;2023-07-22T05:05:53;6.00;;;3.30;;
73150;SDS011;61354;50.758;6.106;2023-07-22T05:08:19;5.78;;;3.20;;
73150;SDS011;61354;50.758;6.106;2023-07-22T05:10:44;6.55;;;3.60;;
73150;SDS011;61354;50.758;6.106;2023-07-22T05:13:10;7.40;;;3.65;;
73150;SDS011;61354;50.758;6.106;2023-07-22T05:15:36;7.22;;;4.07;;
73150;SDS011;61354;50.758;6.106;2023-07-22T05:18:01;7.85;;;3.50;;
73150;SDS011;61354;50.758;6.106;2023-07-22T05:20:27;6.80;;;3.53;;
73150;SDS011;61354;50.758;6.106;2023-07-22T05:22:52;6.93;;;3.63;;
73150;SDS011;61354;50.758;6.106;2023-07-22T05:25:18;6.43;;;3.35;;
73150;SDS011;61354;50.758;6.106;2023-07-22T05:27:43;7.40;;;3.67;;
73150;SDS011;61354;50.758;6.106;2023-07-22T05:30:09;7.20;;;3.38;;
73150;SDS011;61354;50.758;6.106;2023-07-22T05:32:35;7.25;;;3.78;;
73150;SDS011;61354;50.758;6.106;2023-07-22T05:35:01;8.10;;;4.00;;
73150;SDS011;61354;50.758;6.106;2023-07-22T05:37:29;7.10;;;3.40;;
73150;SDS011;61354;50.758;6.106;2023-07-22T05:39:54;7.57;;;4.28;;
73150;SDS011;61354;50.758;6.106;2023-07-22T05:42:20;6.75;;;4.03;;
73150;SDS011;61354;50.758;6.106;2023-07-22T05:44:45;6.43;;;3.47;;
73150;SDS011;61354;50.758;6.106;2023-07-22T05:47:11;7.45;;;3.78;;
73150;SDS011;61354;50.758;6.106;2023-07-22T05:49:36;7.90;;;4.00;;
73150;SDS011;61354;50.758;6.106;2023-07-22T05:52:02;7.22;;;3.88;;
73150;SDS011;61354;50.758;6.106;2023-07-22T05:54:28;6.22;;;3.42;;
73150;SDS011;61354;50.758;6.106;2023-07-22T05:56:53;9.13;;;4.03;;
73150;SDS011;61354;50.758;6.106;2023-07-22T05:59:19;7.70;;;4.55;;
73150;SDS011;61354;50.758;6.106;2023-07-22T06:01:45;7.82;;;3.65;;
73150;SDS011;61354;50.758;6.106;2023-07-22T06:04:10;8.48;;;3.83;;
73150;SDS011;61354;50.758;6.106;2023-07-22T06:06:36;7.47;;;4.40;;
73150;SDS011;61354;50.758;6.106;2023-07-22T06:09:02;9.52;;;4.50;;
73150;SDS011;61354;50.758;6.106;2023-07-22T06:11:27;9.40;;;5.22;;
73150;SDS011;61354;50.758;6.106;2023-07-22T06:13:54;7.82;;;4.32;;
73150;SDS011;61354;50.758;6.106;2023-07-22T06:16:19;9.77;;;4.50;;
73150;SDS011;61354;50.758;6.106;2023-07-22T06:18:45;8.05;;;4.13;;
73150;SDS011;61354;50.758;6.106;2023-07-22T06:21:10;8.90;;;4.18;;
73150;SDS011;61354;50.758;6.106;2023-07-22T06:23:36;8.20;;;4.50;;
73150;SDS011;61354;50.758;6.106;2023-07-22T06:26:02;10.38;;;4.57;;
73150;SDS011;61354;50.758;6.106;2023-07-22T06:28:28;8.77;;;4.22;;
73150;SDS011;61354;50.758;6.106;2023-07-22T06:30:53;8.25;;;4.30;;
73150;SDS011;61354;50.758;6.106;2023-07-22T06:33:19;9.52;;;4.22;;
73150;SDS011;61354;50.758;6.106;2023-07-22T06:35:44;7.40;;;3.88;;
73150;SDS011;61354;50.758;6.106;2023-07-22T06:38:10;7.88;;;4.07;;
73150;SDS011;61354;50.758;6.106;2023-07-22T06:40:35;10.25;;;4.63;;
73150;SDS011;61354;50.758;6.106;2023-07-22T06:43:01;8.48;;;4.20;;
73150;SDS011;61354;50.758;6.106;2023-07-22T06:45:26;8.20;;;4.47;;
73150;SDS011;61354;50.758;6.106;2023-07-22T06:47:52;7.78;;;4.22;;
73150;SDS011;61354;50.758;6.106;2023-07-22T06:50:18;8.95;;;4.60;;
73150;SDS011;61354;50.758;6.106;2023-07-22T06:52:43;8.35;;;4.20;;
73150;SDS011;61354;50.758;6.106;2023-07-22T06:55:09;9.48;;;4.50;;
73150;SDS011;61354;50.758;6.106;2023-07-22T06:57:34;7.20;;;4.38;;
73150;SDS011;61354;50.758;6.106;2023-07-22T07:00:00;7.93;;;4.07;;
73150;SDS011;61354;50.758;6.106;2023-07-22T07:02:26;7.45;;;3.88;;
73150;SDS011;61354;50.758;6.106;2023-07-22T07:04:52;8.52;;;4.43;;
73150;SDS011;61354;50.758;6.106;2023-07-22T07:07:17;7.88;;;3.67;;
73150;SDS011;61354;50.758;6.106;2023-07-22T07:09:43;8.77;;;4.57;;
73150;SDS011;61354;50.758;6.106;2023-07-22T07:12:08;8.38;;;4.40;;
73150;SDS011;61354;50.758;6.106;2023-07-22T07:14:34;7.72;;;4.57;;
73150;SDS011;61354;50.758;6.106;2023-07-22T07:17:01;8.63;;;4.38;;
73150;SDS011;61354;50.758;6.106;2023-07-22T07:19:27;8.82;;;4.20;;
73150;SDS011;61354;50.758;6.106;2023-07-22T07:21:53;11.07;;;4.65;;
73150;SDS011;61354;50.758;6.106;2023-07-22T07:24:19;8.10;;;3.58;;
73150;SDS011;61354;50.758;6.106;2023-07-22T07:26:44;8.30;;;4.03;;
73150;SDS011;61354;50.758;6.106;2023-07-22T07:29:10;10.93;;;4.72;;
73150;SDS011;61354;50.758;6.106;2023-07-22T07:31:36;8.27;;;4.25;;
73150;SDS011;61354;50.758;6.106;2023-07-22T07:34:02;7.32;;;3.45;;
73150;SDS011;61354;50.758;6.106;2023-07-22T07:36:28;7.53;;;4.07;;
73150;SDS011;61354;50.758;6.106;2023-07-22T07:38:53;9.73;;;3.72;;
73150;SDS011;61354;50.758;6.106;2023-07-22T07:41:20;7.15;;;3.85;;
73150;SDS011;61354;50.758;6.106;2023-07-22T07:43:46;7.97;;;4.25;;
73150;SDS011;61354;50.758;6.106;2023-07-22T07:48:42;6.70;;;3.45;;
73150;SDS011;61354;50.758;6.106;2023-07-22T07:51:12;6.47;;;3.20;;
73150;SDS011;61354;50.758;6.106;2023-07-22T07:53:42;8.77;;;3.42;;
73150;SDS011;61354;50.758;6.106;2023-07-22T07:56:09;7.13;;;3.65;;
73150;SDS011;61354;50.758;6.106;2023-07-22T07:58:35;8.63;;;3.92;;
73150;SDS011;61354;50.758;6.106;2023-07-22T08:01:02;7.15;;;3.70;;
73150;SDS011;61354;50.758;6.106;2023-07-22T08:03:28;7.32;;;3.45;;
73150;SDS011;61354;50.758;6.106;2023-07-22T08:05:54;7.60;;;3.92;;
73150;SDS011;61354;50.758;6.106;2023-07-22T08:08:20;7.43;;;3.42;;
73150;SDS011;61354;50.758;6.106;2023-07-22T08:10:46;7.60;;;3.33;;
73150;SDS011;61354;50.758;6.106;2023-07-22T08:13:13;6.78;;;3.17;;
73150;SDS011;61354;50.758;6.106;2023-07-22T08:15:39;6.45;;;3.50;;
73150;SDS011;61354;50.758;6.106;2023-07-22T08:18:07;7.32;;;3.45;;
73150;SDS011;61354;50.758;6.106;2023-07-22T08:20:32;6.25;;;3.22;;
73150;SDS011;61354;50.758;6.106;2023-07-22T08:22:58;6.13;;;3.42;;
73150;SDS011;61354;50.758;6.106;2023-07-22T08:25:24;5.65;;;3.60;;
73150;SDS011;61354;50.758;6.106;2023-07-22T08:27:49;6.07;;;2.88;;
73150;SDS011;61354;50.758;6.106;2023-07-22T08:30:15;6.85;;;3.10;;
73150;SDS011;61354;50.758;6.106;2023-07-22T08:32:40;5.38;;;2.90;;
73150;SDS011;61354;50.758;6.106;2023-07-22T08:35:06;8.13;;;3.55;;
73150;SDS011;61354;50.758;6.106;2023-07-22T08:37:32;5.60;;;3.33;;
73150;SDS011;61354;50.758;6.106;2023-07-22T08:39:58;5.68;;;3.10;;
73150;SDS011;61354;50.758;6.106;2023-07-22T08:42:23;5.38;;;2.85;;
73150;SDS011;61354;50.758;6.106;2023-07-22T08:44:51;4.95;;;2.85;;
73150;SDS011;61354;50.758;6.106;2023-07-22T08:47:22;6.22;;;3.20;;
73150;SDS011;61354;50.758;6.106;2023-07-22T08:49:52;4.53;;;2.50;;
73150;SDS011;61354;50.758;6.106;2023-07-22T08:52:22;5.75;;;2.40;;
73150;SDS011;61354;50.758;6.106;2023-07-22T08:54:49;7.75;;;2.78;;
73150;SDS011;61354;50.758;6.106;2023-07-22T08:57:15;4.80;;;2.60;;
73150;SDS011;61354;50.758;6.106;2023-07-22T08:59:42;5.03;;;2.90;;
73150;SDS011;61354;50.758;6.106;2023-07-22T09:02:10;4.97;;;2.70;;
73150;SDS011;61354;50.758;6.106;2023-07-22T09:04:38;4.70;;;2.80;;
73150;SDS011;61354;50.758;6.106;2023-07-22T09:07:04;5.00;;;2.75;;
73150;SDS011;61354;50.758;6.106;2023-07-22T09:09:31;5.53;;;2.85;;
73150;SDS011;61354;50.758;6.106;2023-07-22T09:11:57;4.47;;;2.53;;
73150;SDS011;61354;50.758;6.106;2023-07-22T09:14:24;5.30;;;2.92;;
73150;SDS011;61354;50.758;6.106;2023-07-22T09:16:53;5.25;;;2.55;;
73150;SDS011;61354;50.758;6.106;2023-07-22T09:19:19;4.38;;;2.67;;
73150;SDS011;61354;50.758;6.106;2023-07-22T09:21:44;6.45;;;3.20;;
73150;SDS011;61354;50.758;6.106;2023-07-22T09:24:19;6.20;;;2.90;;
73150;SDS011;61354;50.758;6.106;2023-07-22T09:26:48;6.70;;;3.13;;
73150;SDS011;61354;50.758;6.106;2023-07-22T09:29:15;6.32;;;3.00;;
73150;SDS011;61354;50.758;6.106;2023-07-22T09:31:50;4.57;;;2.67;;
73150;SDS011;61354;50.758;6.106;2023-07-22T09:34:22;5.20;;;2.53;;
73150;SDS011;61354;50.758;6.106;2023-07-22T09:36:51;5.82;;;2.70;;
73150;SDS011;61354;50.758;6.106;2023-07-22T09:39:17;5.35;;;2.85;;
73150;SDS011;61354;50.758;6.106;2023-07-22T09:41:43;4.07;;;2.10;;
73150;SDS011;61354;50.758;6.106;2023-07-22T09:44:09;4.47;;;2.40;;
73150;SDS011;61354;50.758;6.106;2023-07-22T09:46:38;4.55;;;2.35;;
73150;SDS011;61354;50.758;6.106;2023-07-22T09:49:04;3.65;;;2.03;;
73150;SDS011;61354;50.758;6.106;2023-07-22T09:51:40;4.70;;;2.33;;
73150;SDS011;61354;50.758;6.106;2023-07-22T09:54:06;4.63;;;2.45;;
73150;SDS011;61354;50.758;6.106;2023-07-22T09:56:33;4.72;;;2.60;;
73150;SDS011;61354;50.758;6.106;2023-07-22T09:59:09;4.97;;;2.85;;
73150;SDS011;61354;50.758;6.106;2023-07-22T10:01:37;4.18;;;2.35;;
73150;SDS011;61354;50.758;6.106;2023-07-22T10:04:04;5.45;;;2.92;;
73150;SDS011;61354;50.758;6.106;2023-07-22T10:06:31;5.28;;;2.33;;
73150;SDS011;61354;50.758;6.106;2023-07-22T10:09:04;4.15;;;2.20;;
73150;SDS011;61354;50.758;6.106;2023-07-22T10:11:34;4.30;;;2.30;;
73150;SDS011;61354;50.758;6.106;2023-07-22T10:14:01;4.88;;;2.50;;
73150;SDS011;61354;50.758;6.106;2023-07-22T10:16:28;4.57;;;2.40;;
73150;SDS011;61354;50.758;6.106;2023-07-22T10:18:53;5.32;;;2.25;;
73150;SDS011;61354;50.758;6.106;2023-07-22T10:21:20;5.40;;;2.53;;
73150;SDS011;61354;50.758;6.106;2023-07-22T10:23:47;4.80;;;2.70;;
73150;SDS011;61354;50.758;6.106;2023-07-22T10:26:17;5.15;;;2.65;;
73150;SDS011;61354;50.758;6.106;2023-07-22T10:28:44;4.40;;;2.22;;
73150;SDS011;61354;50.758;6.106;2023-07-22T10:31:11;4.88;;;2.67;;
73150;SDS011;61354;50.758;6.106;2023-07-22T10:33:38;5.03;;;2.60;;
73150;SDS011;61354;50.758;6.106;2023-07-22T10:38:31;4.90;;;2.40;;
73150;SDS011;61354;50.758;6.106;2023-07-22T10:40:57;4.78;;;2.25;;
73150;SDS011;61354;50.758;6.106;2023-07-22T10:46:08;7.05;;;3.25;;
73150;SDS011;61354;50.758;6.106;2023-07-22T10:48:39;5.20;;;2.30;;
73150;SDS011;61354;50.758;6.106;2023-07-22T10:51:10;4.15;;;2.35;;
73150;SDS011;61354;50.758;6.106;2023-07-22T10:53:41;4.65;;;2.47;;
73150;SDS011;61354;50.758;6.106;2023-07-22T11:04:06;3.53;;;1.90;;
73150;SDS011;61354;50.758;6.106;2023-07-22T11:11:55;5.85;;;2.40;;
73150;SDS011;61354;50.758;6.106;2023-07-22T11:14:25;4.40;;;2.08;;
73150;SDS011;61354;50.758;6.106;2023-07-22T11:16:52;4.25;;;2.08;;
73150;SDS011;61354;50.758;6.106;2023-07-22T11:19:22;4.72;;;2.20;;
73150;SDS011;61354;50.758;6.106;2023-07-22T11:21:49;4.82;;;2.03;;
73150;SDS011;61354;50.758;6.106;2023-07-22T11:24:17;5.10;;;2.00;;
73150;SDS011;61354;50.758;6.106;2023-07-22T11:26:44;4.45;;;2.40;;
73150;SDS011;61354;50.758;6.106;2023-07-22T11:29:11;4.55;;;2.10;;
73150;SDS011;61354;50.758;6.106;2023-07-22T11:31:38;3.88;;;1.95;;
73150;SDS011;61354;50.758;6.106;2023-07-22T11:34:18;4.05;;;2.28;;
73150;SDS011;61354;50.758;6.106;2023-07-22T11:36:46;4.32;;;1.90;;
73150;SDS011;61354;50.758;6.106;2023-07-22T11:39:13;3.55;;;1.92;;
73150;SDS011;61354;50.758;6.106;2023-07-22T11:41:40;6.25;;;2.28;;
73150;SDS011;61354;50.758;6.106;2023-07-22T11:44:07;3.72;;;2.05;;
73150;SDS011;61354;50.758;6.106;2023-07-22T11:51:50;3.55;;;2.10;;
73150;SDS011;61354;50.758;6.106;2023-07-22T11:54:20;3.50;;;2.13;;
73150;SDS011;61354;50.758;6.106;2023-07-22T11:56:46;4.22;;;2.13;;
73150;SDS011;61354;50.758;6.106;2023-07-22T11:59:11;3.95;;;2.22;;
73150;SDS011;61354;50.758;6.106;2023-07-22T12:01:37;4.03;;;2.30;;
73150;SDS011;61354;50.758;6.106;2023-07-22T12:04:03;4.40;;;2.10;;
73150;SDS011;61354;50.758;6.106;2023-07-22T12:06:36;4.05;;;2.20;;
73150;SDS011;61354;50.758;6.106;2023-07-22T12:09:01;4.55;;;2.03;;
73150;SDS011;61354;50.758;6.106;2023-07-22T12:11:27;4.18;;;2.38;;
73150;SDS011;61354;50.758;6.106;2023-07-22T12:14:08;4.80;;;2.42;;
73150;SDS011;61354;50.758;6.106;2023-07-22T12:16:41;3.85;;;2.10;;
73150;SDS011;61354;50.758;6.106;2023-07-22T12:19:07;4.28;;;2.05;;
73150;SDS011;61354;50.758;6.106;2023-07-22T12:21:34;4.32;;;2.42;;
73150;SDS011;61354;50.758;6.106;2023-07-22T12:24:00;4.72;;;2.10;;
73150;SDS011;61354;50.758;6.106;2023-07-22T12:26:26;3.85;;;2.10;;
73150;SDS011;61354;50.758;6.106;2023-07-22T12:28:52;5.05;;;2.72;;
73150;SDS011;61354;50.758;6.106;2023-07-22T12:31:18;4.40;;;2.60;;
73150;SDS011;61354;50.758;6.106;2023-07-22T12:33:43;5.40;;;2.40;;
73150;SDS011;61354;50.758;6.106;2023-07-22T12:36:09;4.80;;;2.60;;
73150;SDS011;61354;50.758;6.106;2023-07-22T12:38:35;5.10;;;2.58;;
73150;SDS011;61354;50.758;6.106;2023-07-22T12:41:01;4.90;;;2.60;;
73150;SDS011;61354;50.758;6.106;2023-07-22T12:43:27;3.97;;;2.35;;
73150;SDS011;61354;50.758;6.106;2023-07-22T12:45:53;4.10;;;2.28;;
73150;SDS011;61354;50.758;6.106;2023-07-22T12:48:19;4.55;;;2.22;;
73150;SDS011;61354;50.758;6.106;2023-07-22T12:50:44;4.82;;;2.55;;
73150;SDS011;61354;50.758;6.106;2023-07-22T12:53:12;4.63;;;2.83;;
73150;SDS011;61354;50.758;6.106;2023-07-22T12:55:38;4.65;;;2.30;;
73150;SDS011;61354;50.758;6.106;2023-07-22T12:58:04;4.05;;;1.92;;
73150;SDS011;61354;50.758;6.106;2023-07-22T13:00:30;4.75;;;2.53;;
73150;SDS011;61354;50.758;6.106;2023-07-22T13:02:57;5.47;;;2.38;;
73150;SDS011;61354;50.758;6.106;2023-07-22T13:05:23;4.75;;;2.33;;
73150;SDS011;61354;50.758;6.106;2023-07-22T13:07:48;4.22;;;2.17;;
73150;SDS011;61354;50.758;6.106;2023-07-22T13:10:15;4.18;;;2.00;;
73150;SDS011;61354;50.758;6.106;2023-07-22T13:12:43;5.25;;;2.40;;
73150;SDS011;61354;50.758;6.106;2023-07-22T13:15:09;5.07;;;2.42;;
73150;SDS011;61354;50.758;6.106;2023-07-22T13:17:35;4.57;;;2.45;;
73150;SDS011;61354;50.758;6.106;2023-07-22T13:20:00;3.95;;;2.20;;
73150;SDS011;61354;50.758;6.106;2023-07-22T13:22:26;3.88;;;2.20;;
73150;SDS011;61354;50.758;6.106;2023-07-22T13:24:51;3.67;;;2.22;;
73150;SDS011;61354;50.758;6.106;2023-07-22T13:27:18;3.60;;;1.92;;
73150;SDS011;61354;50.758;6.106;2023-07-22T13:29:43;4.28;;;2.17;;
73150;SDS011;61354;50.758;6.106;2023-07-22T13:32:10;3.85;;;2.10;;
73150;SDS011;61354;50.758;6.106;2023-07-22T13:34:36;5.43;;;2.95;;
73150;SDS011;61354;50.758;6.106;2023-07-22T13:37:01;5.15;;;2.47;;
73150;SDS011;61354;50.758;6.106;2023-07-22T13:39:28;4.72;;;2.20;;
73150;SDS011;61354;50.758;6.106;2023-07-22T13:41:53;4.78;;;2.30;;
73150;SDS011;61354;50.758;6.106;2023-07-22T13:44:19;4.20;;;2.50;;
73150;SDS011;61354;50.758;6.106;2023-07-22T13:46:44;3.92;;;1.95;;
73150;SDS011;61354;50.758;6.106;2023-07-22T13:49:10;5.13;;;2.40;;
73150;SDS011;61354;50.758;6.106;2023-07-22T13:51:35;4.22;;;2.15;;
73150;SDS011;61354;50.758;6.106;2023-07-22T13:54:01;4.32;;;2.30;;
73150;SDS011;61354;50.758;6.106;2023-07-22T13:56:27;4.43;;;2.40;;
73150;SDS011;61354;50.758;6.106;2023-07-22T13:58:53;3.70;;;1.52;;
73150;SDS011;61354;50.758;6.106;2023-07-22T14:01:20;5.00;;;2.15;;
73150;SDS011;61354;50.758;6.106;2023-07-22T14:03:46;3.47;;;1.85;;
73150;SDS011;61354;50.758;6.106;2023-07-22T14:06:11;4.00;;;2.05;;
73150;SDS011;61354;50.758;6.106;2023-07-22T14:08:37;3.63;;;1.90;;
73150;SDS011;61354;50.758;6.106;2023-07-22T14:11:04;3.42;;;1.70;;
73150;SDS011;61354;50.758;6.106;2023-07-22T14:13:29;3.40;;;1.90;;
73150;SDS011;61354;50.758;6.106;2023-07-22T14:15:55;4.60;;;1.92;;
73150;SDS011;61354;50.758;6.106;2023-07-22T14:18:20;2.88;;;1.77;;
73150;SDS011;61354;50.758;6.106;2023-07-22T14:20:46;4.50;;;1.80;;
73150;SDS011;61354;50.758;6.106;2023-07-22T14:23:11;4.05;;;1.98;;
73150;SDS011;61354;50.758;6.106;2023-07-22T14:25:38;3.05;;;1.30;;
73150;SDS011;61354;50.758;6.106;2023-07-22T14:28:04;4.15;;;2.08;;
73150;SDS011;61354;50.758;6.106;2023-07-22T14:30:29;3.28;;;1.90;;
73150;SDS011;61354;50.758;6.106;2023-07-22T14:32:55;3.17;;;1.58;;
73150;SDS011;61354;50.758;6.106;2023-07-22T14:35:21;2.80;;;1.60;;
73150;SDS011;61354;50.758;6.106;2023-07-22T14:37:47;3.90;;;1.52;;
73150;SDS011;61354;50.758;6.106;2023-07-22T14:40:13;3.85;;;1.90;;
73150;SDS011;61354;50.758;6.106;2023-07-22T14:42:39;4.85;;;2.20;;
73150;SDS011;61354;50.758;6.106;2023-07-22T14:45:05;2.97;;;1.60;;
73150;SDS011;61354;50.758;6.106;2023-07-22T14:47:32;3.70;;;1.80;;
73150;SDS011;61354;50.758;6.106;2023-07-22T14:49:57;4.55;;;2.40;;
73150;SDS011;61354;50.758;6.106;2023-07-22T14:52:23;4.00;;;1.67;;
73150;SDS011;61354;50.758;6.106;2023-07-22T14:54:49;5.38;;;2.10;;
73150;SDS011;61354;50.758;6.106;2023-07-22T14:57:16;4.18;;;2.05;;
73150;SDS011;61354;50.758;6.106;2023-07-22T14:59:42;4.40;;;2.30;;
73150;SDS011;61354;50.758;6.106;2023-07-22T15:02:07;4.68;;;2.20;;
73150;SDS011;61354;50.758;6.106;2023-07-22T15:04:33;4.32;;;2.00;;
73150;SDS011;61354;50.758;6.106;2023-07-22T15:06:59;3.65;;;1.90;;
73150;SDS011;61354;50.758;6.106;2023-07-22T15:09:24;5.68;;;2.10;;
73150;SDS011;61354;50.758;6.106;2023-07-22T15:11:50;3.60;;;1.90;;